Time;durP1;ratioP1;P1;durP2;ratioP2;P2;SDS_P1;SDS_P2;PMS_P1;PMS_P2;Temp;Humidity;BMP_temperature;BMP_pressure;BME280_temperature;BME280_humidity;BME280_pressure;Samples;Min_cycle;Max_cycle;Signal;HPM_P1;HPM_P2
2022/02/27 00:00:04;;;;;;;29.80;12.70;;;;;;;3.47;75.43;100907.69;5012521;28;20037;-21
2022/02/27 00:02:29;;;;;;;23.45;12.00;;;;;;;3.57;75.12;100897.88;5012703;28;20036;-20
2022/02/27 00:04:55;;;;;;;25.33;13.27;;;;;;;3.63;75.00;100900.72;5012404;28;20131;-20
2022/02/27 00:07:20;;;;;;;21.70;11.18;;;;;;;3.63;74.79;100906.00;5030417;28;20025;-20
2022/02/27 00:09:46;;;;;;;23.30;12.63;;;;;;;3.40;75.72;100899.56;5030785;28;20041;-20
2022/02/27 00:12:11;;;;;;;25.27;12.50;;;;;;;3.49;75.05;100906.53;5030253;28;20049;-20
2022/02/27 00:14:37;;;;;;;21.92;11.38;;;;;;;3.59;74.30;100901.19;5030098;28;20539;-20
2022/02/27 00:17:02;;;;;;;23.15;14.05;;;;;;;3.56;74.15;100894.41;5012340;28;20402;-21
2022/02/27 00:19:28;;;;;;;23.35;12.43;;;;;;;3.69;73.62;100890.56;5030192;28;20083;-20
2022/02/27 00:21:53;;;;;;;24.33;12.05;;;;;;;3.46;73.69;100877.03;5029974;28;20041;-21
2022/02/27 00:24:19;;;;;;;21.92;12.13;;;;;;;3.50;73.47;100873.09;5030494;28;20038;-21
2022/02/27 00:26:44;;;;;;;23.27;11.88;;;;;;;3.60;72.41;100858.84;5030046;28;20034;-20
2022/02/27 00:29:10;;;;;;;24.02;12.02;;;;;;;3.63;72.71;100868.25;5029774;28;20088;-20
2022/02/27 00:31:35;;;;;;;27.15;12.07;;;;;;;3.58;72.70;100844.97;5030140;28;20060;-20
2022/02/27 00:34:01;;;;;;;21.90;12.20;;;;;;;3.60;72.62;100845.66;5011961;28;20560;-22
2022/02/27 00:36:26;;;;;;;23.35;10.90;;;;;;;3.26;73.62;100842.09;5030069;28;20033;-21
2022/02/27 00:38:52;;;;;;;23.35;12.10;;;;;;;3.31;73.67;100845.09;5029509;28;20025;-20
2022/02/27 00:41:18;;;;;;;20.75;11.20;;;;;;;3.45;72.27;100844.53;5030020;28;20119;-20
2022/02/27 00:43:43;;;;;;;21.67;11.68;;;;;;;3.28;72.24;100848.03;5029691;28;20108;-20
2022/02/27 00:46:09;;;;;;;23.08;11.85;;;;;;;3.30;72.36;100839.00;5029836;28;20052;-19
2022/02/27 00:48:35;;;;;;;24.52;12.07;;;;;;;3.25;73.00;100848.31;5011697;28;20116;-21
2022/02/27 00:51:01;;;;;;;21.35;11.82;;;;;;;3.18;73.12;100841.03;5029628;28;20094;-21
2022/02/27 00:53:26;;;;;;;21.90;11.70;;;;;;;3.22;72.88;100831.84;5029710;28;20030;-20
2022/02/27 00:55:52;;;;;;;18.52;11.05;;;;;;;3.17;72.40;100831.47;5029615;28;20084;-21
2022/02/27 00:58:17;;;;;;;20.40;11.60;;;;;;;3.18;72.70;100830.47;4995359;28;20033;-21
2022/02/27 01:00:42;;;;;;;23.92;11.68;;;;;;;3.12;72.47;100833.72;5029566;28;20075;-20
2022/02/27 01:03:08;;;;;;;21.67;10.68;;;;;;;3.17;71.85;100842.03;5029485;28;20029;-20
2022/02/27 01:05:34;;;;;;;23.23;11.35;;;;;;;3.14;71.72;100837.03;5029474;28;20504;-20
2022/02/27 01:07:59;;;;;;;21.92;11.18;;;;;;;3.02;72.41;100817.16;5011666;28;20030;-21
2022/02/27 01:10:24;;;;;;;23.77;11.80;;;;;;;2.81;72.30;100789.31;5029123;28;20045;-20
2022/02/27 01:12:50;;;;;;;20.88;11.80;;;;;;;3.06;72.23;100812.44;4994295;28;20057;-21
2022/02/27 01:15:17;;;;;;;18.00;10.27;;;;;;;3.40;71.34;100820.44;5029067;28;20035;-20
2022/02/27 01:17:42;;;;;;;24.67;11.38;;;;;;;3.02;71.78;100809.25;5029179;28;20033;-20
2022/02/27 01:20:08;;;;;;;22.35;10.48;;;;;;;3.20;71.00;100825.88;5029302;28;20040;-20
2022/02/27 01:22:34;;;;;;;21.13;10.50;;;;;;;3.17;71.61;100823.56;5029186;28;20486;-19
2022/02/27 01:24:59;;;;;;;28.75;13.75;;;;;;;2.99;72.27;100830.66;5029032;28;20025;-20
2022/02/27 01:27:24;;;;;;;22.55;14.07;;;;;;;2.53;75.02;100830.66;5029165;28;20033;-20
2022/02/27 01:29:50;;;;;;;28.85;15.68;;;;;;;2.48;75.39;100840.00;5028973;28;20029;-20
2022/02/27 01:32:15;;;;;;;31.98;17.75;;;;;;;2.49;75.21;100847.72;5029483;28;20040;-20
2022/02/27 01:34:41;;;;;;;30.85;16.75;;;;;;;2.34;75.61;100849.22;5028936;28;20033;-20
2022/02/27 01:37:06;;;;;;;18.85;11.45;;;;;;;2.48;75.04;100855.78;5011055;28;20037;-20
2022/02/27 01:39:32;;;;;;;21.88;12.43;;;;;;;2.83;74.37;100864.75;5010823;28;20113;-20
2022/02/27 01:41:57;;;;;;;24.10;12.68;;;;;;;3.02;73.49;100875.13;5028491;28;20475;-20
2022/02/27 01:44:23;;;;;;;26.25;13.30;;;;;;;3.07;73.55;100866.81;5028704;28;20068;-21
2022/02/27 01:47:07;;;;;;;22.27;12.50;;;;;;;2.72;74.76;100863.16;5028644;28;20412;-20
2022/02/27 01:49:32;;;;;;;28.45;15.00;;;;;;;2.46;76.93;100876.19;5028551;28;20512;-20
2022/02/27 01:51:58;;;;;;;24.88;13.25;;;;;;;2.55;76.62;100868.22;5028521;28;20033;-20
2022/02/27 01:54:23;;;;;;;28.00;13.23;;;;;;;2.67;76.27;100860.94;5028168;28;20042;-21
2022/02/27 01:56:49;;;;;;;27.85;13.25;;;;;;;2.69;76.18;100848.44;5028198;28;20390;-22
2022/02/27 01:59:14;;;;;;;23.50;12.43;;;;;;;2.60;76.35;100836.19;5028428;28;20030;-21
2022/02/27 02:01:41;;;;;;;28.52;14.18;;;;;;;2.79;75.70;100838.69;5028262;28;20033;-20
2022/02/27 02:04:06;;;;;;;25.23;14.23;;;;;;;2.90;75.87;100844.72;5028287;28;20029;-20
2022/02/27 02:06:32;;;;;;;25.88;13.90;;;;;;;2.73;76.56;100834.00;5028257;28;20421;-20
2022/02/27 02:08:57;;;;;;;32.00;14.25;;;;;;;2.48;77.94;100834.75;5028017;28;20068;-21
2022/02/27 02:11:23;;;;;;;28.08;13.20;;;;;;;2.25;79.34;100840.41;5010367;28;20044;-20
2022/02/27 02:13:48;;;;;;;26.67;13.80;;;;;;;2.18;80.33;100842.75;5010446;28;20092;-20
2022/02/27 02:16:14;;;;;;;28.05;13.65;;;;;;;2.08;80.69;100818.28;5028041;28;20033;-21
2022/02/27 02:18:39;;;;;;;26.33;13.13;;;;;;;1.97;82.25;100842.97;5010529;28;20493;-20
2022/02/27 02:21:08;;;;;;;28.77;13.30;;;;;;;2.09;82.93;100834.91;5027922;28;20414;-20
2022/02/27 02:23:34;;;;;;;25.65;13.65;;;;;;;2.35;81.46;100833.28;4994197;28;20036;-20
2022/02/27 02:26:01;;;;;;;22.20;12.60;;;;;;;2.10;81.53;100826.03;5027953;28;20033;-21
2022/02/27 02:28:27;;;;;;;27.63;14.32;;;;;;;2.35;81.35;100851.72;5010393;28;20083;-20
2022/02/27 02:30:52;;;;;;;22.48;12.57;;;;;;;2.13;82.56;100844.19;5027796;28;20463;-20
2022/02/27 02:33:18;;;;;;;28.08;14.13;;;;;;;2.18;82.16;100828.78;5027873;28;20032;-20
2022/02/27 02:35:45;;;;;;;25.05;14.02;;;;;;;2.30;82.21;100848.66;5027953;28;20055;-20
2022/02/27 02:38:10;;;;;;;25.00;13.63;;;;;;;2.29;82.39;100838.28;5010391;28;20021;-20
2022/02/27 02:40:36;;;;;;;23.70;12.48;;;;;;;2.22;81.59;100824.88;5027756;28;20037;-20
2022/02/27 02:43:01;;;;;;;27.83;14.18;;;;;;;2.23;81.84;100831.81;5027420;28;20029;-20
2022/02/27 02:45:26;;;;;;;28.10;13.75;;;;;;;2.08;82.29;100818.28;5028078;28;20045;-20
2022/02/27 02:47:55;;;;;;;26.88;14.85;;;;;;;2.26;82.12;100799.94;5028210;28;20747;-21
2022/02/27 02:50:22;;;;;;;28.35;13.63;;;;;;;2.52;81.12;100821.13;5027674;28;20041;-20
2022/02/27 02:52:47;;;;;;;25.52;13.13;;;;;;;2.55;80.11;100793.66;5027627;28;20032;-22
2022/02/27 02:55:17;;;;;;;30.08;14.88;;;;;;;2.47;80.81;100797.03;5027586;28;20057;-21
2022/02/27 02:57:42;;;;;;;27.33;13.90;;;;;;;2.70;79.65;100797.44;5027890;28;20115;-20
2022/02/27 03:00:10;;;;;;;25.10;13.20;;;;;;;2.75;79.09;100805.72;5027606;28;20764;-20
2022/02/27 03:02:36;;;;;;;30.70;14.77;;;;;;;2.68;79.33;100799.41;5027375;28;20057;-20
2022/02/27 03:05:01;;;;;;;30.40;14.63;;;;;;;2.50;79.94;100807.28;4993127;28;20041;-20
2022/02/27 03:07:27;;;;;;;25.80;13.30;;;;;;;2.59;79.98;100831.88;5027325;28;20033;-20
2022/02/27 03:09:52;;;;;;;27.05;13.57;;;;;;;2.41;80.59;100835.31;5027851;28;20497;-20
2022/02/27 03:12:18;;;;;;;28.67;13.63;;;;;;;2.32;81.64;100851.97;5031200;28;20053;-20
2022/02/27 03:14:43;;;;;;;29.55;13.32;;;;;;;2.28;81.46;100858.50;5031370;28;20107;-20
2022/02/27 03:17:09;;;;;;;27.73;13.52;;;;;;;2.54;80.89;100844.69;5031125;28;20034;-20
2022/02/27 03:19:34;;;;;;;25.65;13.63;;;;;;;2.69;79.65;100832.66;5031586;28;20029;-20
2022/02/27 03:22:00;;;;;;;25.73;14.38;;;;;;;2.67;79.30;100834.59;5030915;28;20032;-20
2022/02/27 03:24:25;;;;;;;25.35;13.57;;;;;;;2.99;78.46;100843.81;5031176;28;20037;-20
2022/02/27 03:26:51;;;;;;;25.98;13.15;;;;;;;2.88;78.05;100841.41;5031140;28;20029;-20
2022/02/27 03:29:16;;;;;;;26.73;14.52;;;;;;;2.92;77.03;100837.50;5031361;28;20112;-20
2022/02/27 03:31:41;;;;;;;26.67;14.05;;;;;;;3.06;77.68;100854.59;5031310;28;20037;-21
2022/02/27 03:34:07;;;;;;;28.05;14.73;;;;;;;3.14;76.81;100844.94;5030884;28;20037;-20
2022/02/27 03:36:32;;;;;;;25.50;14.45;;;;;;;3.25;76.02;100846.53;5030726;28;20033;-21
2022/02/27 03:38:58;;;;;;;27.25;17.00;;;;;;;3.57;74.81;100859.13;5030785;28;20091;-20
2022/02/27 03:41:23;;;;;;;34.28;18.45;;;;;;;3.33;75.21;100851.03;5030881;28;20492;-20
2022/02/27 03:43:49;;;;;;;32.20;15.63;;;;;;;3.35;75.62;100841.16;5030641;28;20041;-21
2022/02/27 03:46:14;;;;;;;47.20;25.73;;;;;;;3.03;77.01;100853.09;5012888;28;20037;-20
2022/02/27 03:48:40;;;;;;;26.95;15.38;;;;;;;3.14;77.19;100857.31;5030550;28;20025;-21
2022/02/27 03:51:06;;;;;;;390.20;157.18;;;;;;;3.24;76.46;100857.22;5030245;28;20520;-20
2022/02/27 03:53:32;;;;;;;268.98;117.90;;;;;;;3.06;76.83;100884.41;5012731;28;20505;-20
2022/02/27 03:55:57;;;;;;;237.25;101.28;;;;;;;3.33;76.03;100877.41;4996355;28;20065;-20
2022/02/27 03:58:23;;;;;;;50.28;24.90;;;;;;;3.65;73.93;100881.28;5030716;28;20033;-21
2022/02/27 04:00:48;;;;;;;35.83;17.90;;;;;;;3.76;74.24;100881.03;5030236;28;20060;-20
2022/02/27 04:03:14;;;;;;;40.38;20.90;;;;;;;3.74;73.21;100883.00;5012738;28;20028;-22
2022/02/27 04:05:40;;;;;;;35.90;17.58;;;;;;;3.80;72.88;100869.19;5030226;28;20436;-20
2022/02/27 04:08:05;;;;;;;26.25;14.15;;;;;;;4.15;71.63;100883.28;5030183;28;20029;-22
2022/02/27 04:10:31;;;;;;;26.50;14.27;;;;;;;3.96;71.78;100885.16;5030730;28;20083;-20
2022/02/27 04:12:56;;;;;;;25.25;14.30;;;;;;;3.60;72.85;100884.41;5030163;28;20049;-20
2022/02/27 04:15:22;;;;;;;22.85;13.63;;;;;;;3.70;73.37;100885.13;5030266;28;20033;-20
2022/02/27 04:17:47;;;;;;;28.13;18.08;;;;;;;3.33;73.81;100894.06;5030098;28;20041;-20
2022/02/27 04:20:12;;;;;;;24.63;14.88;;;;;;;3.50;73.70;100873.94;5030266;28;20493;-20
2022/02/27 04:22:38;;;;;;;24.23;14.52;;;;;;;3.42;74.08;100856.22;5028893;28;20033;-21
2022/02/27 04:25:04;;;;;;;34.72;19.35;;;;;;;3.79;73.78;100880.72;5030065;28;20025;-20
2022/02/27 04:27:29;;;;;;;35.53;19.50;;;;;;;3.85;71.53;100872.19;5012645;28;20052;-21
2022/02/27 04:29:55;;;;;;;23.50;13.70;;;;;;;3.59;73.18;100873.00;5030153;28;20084;-20
2022/02/27 04:32:20;;;;;;;23.90;13.80;;;;;;;3.54;73.49;100869.19;5030085;28;20029;-20
2022/02/27 04:34:46;;;;;;;29.10;18.23;;;;;;;3.50;72.67;100878.38;5012062;28;20033;-20
2022/02/27 04:37:12;;;;;;;27.77;15.65;;;;;;;3.68;72.22;100875.69;5029467;28;20044;-21
2022/02/27 04:39:37;;;;;;;26.83;14.27;;;;;;;3.80;71.56;100869.19;5029916;28;20088;-20
2022/02/27 04:42:03;;;;;;;27.25;14.95;;;;;;;3.95;70.59;100877.38;5029651;28;20761;-20
2022/02/27 04:44:28;;;;;;;40.72;20.42;;;;;;;4.21;69.88;100872.91;5029753;28;20286;-20
2022/02/27 04:46:54;;;;;;;130.88;65.88;;;;;;;4.32;69.08;100877.06;5029541;28;20119;-20
2022/02/27 04:49:19;;;;;;;553.25;251.70;;;;;;;3.95;69.55;100862.38;5029506;28;20037;-20
2022/02/27 04:51:45;;;;;;;49.35;24.85;;;;;;;3.76;70.99;100857.28;5029455;28;20099;-20
2022/02/27 04:54:10;;;;;;;79.45;43.30;;;;;;;3.85;70.43;100845.81;5011915;28;20045;-20
2022/02/27 04:56:36;;;;;;;47.10;31.83;;;;;;;3.71;71.39;100860.38;5029654;28;20044;-20
2022/02/27 04:59:01;;;;;;;32.28;23.50;;;;;;;3.35;72.65;100849.06;5029715;28;20033;-21
2022/02/27 05:01:27;;;;;;;34.20;22.63;;;;;;;3.10;72.86;100830.41;5029116;28;20033;-20
2022/02/27 05:03:52;;;;;;;63.13;47.22;;;;;;;3.28;73.09;100848.03;5029343;28;20030;-21
2022/02/27 05:06:17;;;;;;;52.53;32.22;;;;;;;3.51;72.72;100843.91;5028923;28;20038;-20
2022/02/27 05:08:43;;;;;;;55.17;28.15;;;;;;;3.57;72.65;100843.31;5029482;28;20029;-20
2022/02/27 05:11:08;;;;;;;70.88;41.15;;;;;;;3.15;73.93;100854.53;5029185;28;20045;-20
2022/02/27 05:13:34;;;;;;;53.33;32.45;;;;;;;3.11;73.84;100847.91;5029156;28;20053;-20
2022/02/27 05:15:59;;;;;;;44.20;27.83;;;;;;;3.05;74.98;100853.78;5011408;28;20033;-20
2022/02/27 05:18:25;;;;;;;36.80;22.75;;;;;;;3.18;74.51;100861.28;5029036;28;20033;-21
2022/02/27 05:20:50;;;;;;;28.77;18.40;;;;;;;3.02;74.87;100861.97;5028627;28;20512;-20
2022/02/27 05:23:16;;;;;;;27.15;15.93;;;;;;;3.15;74.36;100870.34;5028927;28;20119;-21
2022/02/27 05:25:41;;;;;;;29.27;17.85;;;;;;;3.14;74.59;100879.22;5011398;28;20033;-20
2022/02/27 05:28:06;;;;;;;22.98;13.80;;;;;;;3.32;74.66;100878.38;5028926;28;20037;-20
2022/02/27 05:30:32;;;;;;;27.52;14.75;;;;;;;3.48;74.34;100886.44;5028935;28;20037;-21
2022/02/27 05:32:57;;;;;;;32.40;17.77;;;;;;;3.75;73.39;100884.66;5010676;28;20037;-20
2022/02/27 05:35:23;;;;;;;33.60;16.98;;;;;;;3.59;73.78;100886.19;5028430;28;20041;-20
2022/02/27 05:37:48;;;;;;;32.50;16.27;;;;;;;3.62;74.00;100893.81;5028885;28;20045;-20
2022/02/27 05:40:15;;;;;;;26.40;15.73;;;;;;;3.56;74.13;100873.31;5010715;28;20037;-21
2022/02/27 05:42:40;;;;;;;19.65;11.57;;;;;;;3.20;75.94;100868.06;5011034;28;20029;-20
2022/02/27 05:45:06;;;;;;;24.17;12.38;;;;;;;3.58;75.06;100889.81;5028371;28;20036;-20
2022/02/27 05:47:32;;;;;;;23.83;14.25;;;;;;;3.71;74.12;100860.38;5028567;28;20451;-20
2022/02/27 05:49:57;;;;;;;24.30;14.10;;;;;;;3.81;73.87;100871.66;5010636;28;20025;-20
2022/02/27 05:52:22;;;;;;;30.85;14.30;;;;;;;3.75;74.15;100877.56;5028543;28;20025;-21
2022/02/27 05:54:48;;;;;;;25.65;14.98;;;;;;;3.76;75.03;100899.50;5028462;28;20716;-20
2022/02/27 05:57:13;;;;;;;30.65;16.25;;;;;;;3.99;73.79;100898.03;5010374;28;20030;-21
2022/02/27 05:59:39;;;;;;;36.83;18.48;;;;;;;3.98;73.89;100904.28;5028248;28;20099;-20
2022/02/27 06:02:04;;;;;;;25.70;14.73;;;;;;;3.79;74.93;100925.59;5028055;28;20585;-20
2022/02/27 06:04:30;;;;;;;30.15;13.10;;;;;;;3.80;75.38;100911.41;5028412;28;20041;-20
2022/02/27 06:06:55;;;;;;;28.30;15.15;;;;;;;4.16;73.26;100911.31;5028074;28;20088;-20
2022/02/27 06:09:21;;;;;;;29.40;15.68;;;;;;;4.07;73.51;100904.34;5010590;28;20087;-20
2022/02/27 06:11:46;;;;;;;28.27;13.95;;;;;;;4.23;73.79;100904.44;5027771;28;20049;-21
2022/02/27 06:14:12;;;;;;;26.80;14.98;;;;;;;4.10;74.43;100919.84;5028168;28;20057;-20
2022/02/27 06:16:37;;;;;;;26.77;13.77;;;;;;;4.13;74.07;100924.84;5010546;28;20041;-20
2022/02/27 06:19:03;;;;;;;26.27;14.77;;;;;;;4.07;74.16;100922.81;5027538;28;20029;-20
2022/02/27 06:21:29;;;;;;;28.60;16.52;;;;;;;4.15;73.97;100912.31;5028168;28;20033;-20
2022/02/27 06:23:54;;;;;;;26.00;16.38;;;;;;;4.17;74.66;100913.81;5010491;28;20032;-20
2022/02/27 06:26:20;;;;;;;34.15;18.05;;;;;;;4.28;73.49;100919.81;5010458;28;20038;-21
2022/02/27 06:28:45;;;;;;;43.22;22.00;;;;;;;4.33;74.31;100902.50;5010041;28;20025;-20
2022/02/27 06:31:11;;;;;;;35.25;17.30;;;;;;;4.57;73.38;100893.03;5009825;28;20087;-20
2022/02/27 06:33:36;;;;;;;30.60;19.92;;;;;;;4.94;71.20;100894.47;5027806;28;20110;-21
2022/02/27 06:36:02;;;;;;;35.22;24.88;;;;;;;4.96;71.19;100895.13;4993850;28;20112;-21
2022/02/27 06:38:27;;;;;;;37.80;26.30;;;;;;;4.81;71.98;100884.38;5027819;28;20033;-20
2022/02/27 06:40:53;;;;;;;78.90;44.67;;;;;;;4.76;71.46;100882.22;5027712;28;20044;-20
2022/02/27 06:43:18;;;;;;;29.88;18.52;;;;;;;4.58;72.69;100876.22;5027587;28;20053;-23
2022/02/27 06:45:44;;;;;;;39.13;25.42;;;;;;;4.81;72.98;100879.06;5026932;28;20045;-20
2022/02/27 06:48:09;;;;;;;31.65;17.95;;;;;;;4.86;72.70;100875.94;5027725;28;20545;-20
2022/02/27 06:50:34;;;;;;;37.50;18.55;;;;;;;4.82;72.95;100865.72;5009605;28;20056;-20
2022/02/27 06:53:00;;;;;;;32.35;18.70;;;;;;;5.20;72.22;100889.06;5027789;28;20022;-20
2022/02/27 06:55:25;;;;;;;30.33;17.77;;;;;;;5.38;70.26;100888.94;5027817;28;20044;-20
2022/02/27 06:57:51;;;;;;;28.27;14.52;;;;;;;5.15;70.98;100879.00;5027703;28;20040;-20
2022/02/27 07:00:17;;;;;;;25.45;14.48;;;;;;;5.19;71.22;100898.81;5027644;28;20493;-21
2022/02/27 07:02:43;;;;;;;30.48;18.42;;;;;;;5.37;70.09;100874.88;5027408;28;20060;-20
2022/02/27 07:05:08;;;;;;;30.13;18.58;;;;;;;5.39;71.75;100890.56;5027190;28;20033;-20
2022/02/27 07:07:34;;;;;;;33.92;20.40;;;;;;;5.54;71.36;100886.28;5027468;28;20044;-20
2022/02/27 07:10:00;;;;;;;29.27;17.40;;;;;;;5.60;71.29;100890.91;5027543;28;20029;-20
2022/02/27 07:12:33;;;;;;;30.40;17.02;;;;;;;5.26;71.88;100874.38;5027434;28;20053;-21
2022/02/27 07:14:59;;;;;;;27.25;16.25;;;;;;;5.32;72.18;100876.34;5027206;28;20052;-20
2022/02/27 07:17:25;;;;;;;57.30;35.75;;;;;;;5.59;71.30;100872.53;5027174;28;20441;-21
2022/02/27 07:19:51;;;;;;;29.63;16.42;;;;;;;5.26;72.27;100853.22;5009815;28;20116;-20
2022/02/27 07:22:16;;;;;;;90.80;51.10;;;;;;;5.37;71.68;100868.75;5027252;28;20057;-20
2022/02/27 07:24:42;;;;;;;47.55;25.08;;;;;;;5.38;71.89;100873.88;5027192;28;20146;-21
2022/02/27 07:27:07;;;;;;;189.10;90.35;;;;;;;5.60;72.50;100875.03;5026958;28;20500;-20
2022/02/27 07:29:33;;;;;;;167.02;73.72;;;;;;;5.63;71.04;100874.69;5027257;28;20049;-21
2022/02/27 07:31:59;;;;;;;274.08;117.10;;;;;;;5.63;71.10;100869.41;5009278;28;20036;-20
2022/02/27 07:34:24;;;;;;;166.13;76.75;;;;;;;5.60;71.39;100859.16;5009287;28;20109;-20
2022/02/27 07:36:51;;;;;;;67.32;37.08;;;;;;;5.67;72.44;100869.91;5027095;28;20561;-20
2022/02/27 07:39:23;;;;;;;25.95;15.75;;;;;;;5.40;73.12;100860.50;5027351;28;20175;-20
2022/02/27 07:41:49;;;;;;;50.72;27.15;;;;;;;5.46;72.98;100851.88;5009634;28;20021;-20
2022/02/27 07:44:14;;;;;;;104.07;52.45;;;;;;;5.56;73.80;100841.16;5027013;28;20033;-21
2022/02/27 07:46:40;;;;;;;43.05;22.45;;;;;;;5.30;73.95;100867.75;5027042;28;20815;-20
2022/02/27 07:49:06;;;;;;;29.15;17.42;;;;;;;5.23;74.17;100855.19;5026853;28;20475;-20
2022/02/27 07:51:31;;;;;;;41.85;23.58;;;;;;;5.38;73.74;100844.78;5026821;28;20026;-20
2022/02/27 07:53:56;;;;;;;31.40;17.40;;;;;;;5.43;73.75;100846.91;5027336;28;20033;-20
2022/02/27 07:56:22;;;;;;;32.95;18.08;;;;;;;5.40;74.13;100836.69;5010140;28;20030;-21
2022/02/27 07:58:48;;;;;;;27.95;17.25;;;;;;;5.43;75.02;100836.34;5030451;28;20033;-21
2022/02/27 08:01:13;;;;;;;29.83;17.02;;;;;;;5.12;74.90;100833.53;5030185;28;20037;-21
2022/02/27 08:03:39;;;;;;;36.30;19.05;;;;;;;4.66;76.96;100828.69;5012738;28;20040;-20
2022/02/27 08:06:04;;;;;;;30.38;17.40;;;;;;;4.40;77.87;100821.66;5030373;28;20452;-20
2022/02/27 08:08:30;;;;;;;33.20;17.40;;;;;;;4.30;78.83;100820.97;5030246;28;20033;-21
2022/02/27 08:10:55;;;;;;;33.15;18.25;;;;;;;4.42;78.47;100830.25;5012215;28;20038;-20
2022/02/27 08:13:21;;;;;;;32.22;18.50;;;;;;;4.61;78.44;100825.69;5030072;28;20469;-20
2022/02/27 08:15:46;;;;;;;32.88;18.50;;;;;;;4.23;79.24;100831.34;5030085;28;20033;-20
2022/02/27 08:18:12;;;;;;;37.35;19.63;;;;;;;4.16;79.96;100805.72;5030392;28;20036;-20
2022/02/27 08:20:37;;;;;;;30.30;17.83;;;;;;;4.16;80.31;100797.81;5030392;28;20029;-20
2022/02/27 08:23:03;;;;;;;33.03;18.63;;;;;;;4.36;79.61;100815.03;5029934;28;20041;-19
2022/02/27 08:25:28;;;;;;;36.63;22.17;;;;;;;4.65;78.57;100813.78;5029807;28;20085;-20
2022/02/27 08:27:53;;;;;;;49.25;34.78;;;;;;;4.43;78.88;100797.56;5029897;28;20088;-20
2022/02/27 08:30:19;;;;;;;80.40;53.28;;;;;;;4.59;79.60;100806.50;5011853;28;20037;-20
2022/02/27 08:32:50;;;;;;;74.80;53.08;;;;;;;4.82;78.18;100802.28;5030082;28;20032;-20
2022/02/27 08:35:16;;;;;;;50.13;34.17;;;;;;;4.66;78.12;100796.97;5012811;28;20509;-20
2022/02/27 08:37:41;;;;;;;40.90;24.13;;;;;;;4.82;78.91;100801.44;5029722;28;20038;-20
2022/02/27 08:40:07;;;;;;;37.65;20.83;;;;;;;4.72;78.45;100783.13;5011937;28;20552;-21
2022/02/27 08:42:33;;;;;;;33.33;18.48;;;;;;;4.67;79.53;100788.03;5011851;28;20055;-20
2022/02/27 08:44:58;;;;;;;32.22;18.27;;;;;;;4.77;79.51;100801.94;5029179;28;20060;-20
2022/02/27 08:47:24;;;;;;;35.92;21.13;;;;;;;4.70;80.03;100774.53;5029794;28;20497;-20
2022/02/27 08:49:49;;;;;;;47.65;32.30;;;;;;;4.72;80.97;100780.47;5029510;28;20033;-21
2022/02/27 08:52:15;;;;;;;35.97;20.15;;;;;;;4.89;81.60;100780.50;5029544;28;20083;-20
2022/02/27 08:54:40;;;;;;;52.05;35.05;;;;;;;4.90;80.50;100768.91;5029559;28;20025;-21
2022/02/27 08:57:05;;;;;;;53.85;32.63;;;;;;;5.03;81.62;100785.94;5029118;28;20030;-20
2022/02/27 08:59:31;;;;;;;81.00;49.75;;;;;;;5.01;83.22;100764.13;5029254;28;20029;-20
2022/02/27 09:01:56;;;;;;;67.72;43.05;;;;;;;5.07;83.05;100780.31;5029084;28;20474;-20
2022/02/27 09:04:22;;;;;;;74.22;49.38;;;;;;;5.21;82.46;100785.78;5029517;28;20025;-20
2022/02/27 09:06:48;;;;;;;136.48;73.25;;;;;;;5.58;82.38;100795.00;5011332;28;20037;-20
2022/02/27 09:09:15;;;;;;;123.63;69.43;;;;;;;5.90;81.30;100776.53;5010965;28;20460;-21
2022/02/27 09:11:41;;;;;;;76.07;44.83;;;;;;;5.93;80.38;100769.09;5028806;28;20057;-20
2022/02/27 09:14:06;;;;;;;157.18;87.45;;;;;;;5.80;80.58;100774.94;5028728;28;20394;-20
2022/02/27 09:16:32;;;;;;;73.90;40.03;;;;;;;5.53;81.91;100768.19;5011670;28;20105;-20
2022/02/27 09:18:57;;;;;;;100.38;51.85;;;;;;;5.62;82.87;100756.63;5028709;28;20044;-20
2022/02/27 09:21:24;;;;;;;78.70;41.17;;;;;;;5.49;81.64;100742.25;5011421;28;20042;-20
2022/02/27 09:23:49;;;;;;;49.00;26.73;;;;;;;5.11;82.10;100726.09;5028814;28;20482;-20
2022/02/27 09:26:15;;;;;;;36.05;23.15;;;;;;;4.99;83.16;100750.25;5028812;28;20057;-20
2022/02/27 09:28:41;;;;;;;48.25;25.83;;;;;;;4.96;82.07;100749.75;5010709;28;20033;-20
2022/02/27 09:31:06;;;;;;;40.58;23.80;;;;;;;4.97;82.73;100740.84;5028519;28;20094;-21
2022/02/27 09:33:32;;;;;;;109.97;55.25;;;;;;;5.02;83.00;100743.78;5028653;28;20018;-20
2022/02/27 09:35:58;;;;;;;77.20;41.88;;;;;;;5.11;82.89;100741.97;5028171;28;20676;-21
2022/02/27 09:38:23;;;;;;;54.17;27.70;;;;;;;5.07;81.18;100736.22;5028153;28;20036;-20
2022/02/27 09:40:49;;;;;;;54.20;34.88;;;;;;;5.18;81.50;100730.56;5026750;28;20037;-21
2022/02/27 09:43:16;;;;;;;63.33;38.03;;;;;;;5.29;80.68;100723.28;5027132;28;20060;-20
2022/02/27 09:45:42;;;;;;;71.13;45.25;;;;;;;5.19;80.61;100713.72;5026763;28;20091;-21
2022/02/27 09:48:07;;;;;;;41.08;25.05;;;;;;;5.38;79.46;100723.09;5010454;28;20037;-20
2022/02/27 09:50:34;;;;;;;35.70;23.10;;;;;;;5.24;79.96;100707.94;4993648;28;20033;-20
2022/02/27 09:53:00;;;;;;;38.67;22.75;;;;;;;5.11;80.01;100689.09;5026774;28;20039;-20
2022/02/27 09:55:25;;;;;;;38.92;23.58;;;;;;;5.13;80.78;100714.41;5027424;28;20029;-20
2022/02/27 09:57:51;;;;;;;26.83;15.98;;;;;;;5.04;80.84;100696.88;5027371;28;20040;-20
2022/02/27 10:00:18;;;;;;;29.65;18.55;;;;;;;5.07;81.23;100693.06;5027828;28;20044;-20
2022/02/27 10:03:05;;;;;;;31.33;17.00;;;;;;;5.20;81.45;100686.28;5027389;28;20029;-20
2022/02/27 10:05:32;;;;;;;30.35;18.25;;;;;;;5.20;80.51;100685.47;5027756;28;20112;-20
2022/02/27 10:07:58;;;;;;;32.30;18.02;;;;;;;5.04;80.39;100671.25;5009308;28;20033;-20
2022/02/27 10:10:23;;;;;;;26.75;16.60;;;;;;;5.00;80.30;100645.34;5009443;28;20056;-20
2022/02/27 10:12:49;;;;;;;18.65;10.75;;;;;;;5.03;80.17;100660.88;5026744;28;20092;-21
2022/02/27 10:15:15;;;;;;;32.38;20.13;;;;;;;5.27;80.28;100661.78;5027671;28;20041;-21
2022/02/27 10:17:41;;;;;;;23.35;11.27;;;;;;;5.26;79.86;100663.63;5027391;28;20033;-21
2022/02/27 10:20:08;;;;;;;31.20;17.23;;;;;;;5.43;80.08;100645.88;5026505;28;20047;-20
2022/02/27 10:22:35;;;;;;;26.23;14.68;;;;;;;5.58;79.38;100654.75;5027172;28;20025;-21
2022/02/27 10:25:07;;;;;;;28.80;15.80;;;;;;;5.68;78.57;100664.31;5009138;28;20054;-21
2022/02/27 10:27:46;;;;;;;29.85;16.75;;;;;;;5.60;78.11;100644.00;5027803;28;20048;-20
2022/02/27 10:30:21;;;;;;;26.45;15.30;;;;;;;5.40;79.41;100647.06;5027173;28;20052;-20
2022/02/27 10:33:08;;;;;;;33.13;23.17;;;;;;;5.41;80.90;100637.28;5009187;28;20735;-21
2022/02/27 10:35:53;;;;;;;26.73;18.50;;;;;;;5.40;79.64;100611.84;5026846;28;20044;-20
2022/02/27 10:38:52;;;;;;;31.15;21.95;;;;;;;5.56;79.59;100630.31;5009731;28;20083;-20
2022/02/27 10:41:21;;;;;;;29.40;17.70;;;;;;;5.45;79.98;100617.44;5026971;28;20133;-21
2022/02/27 10:43:47;;;;;;;32.55;19.83;;;;;;;5.45;78.48;100601.56;5026466;28;20026;-19
2022/02/27 10:46:13;;;;;;;29.20;14.90;;;;;;;5.38;78.10;100612.00;5026896;28;20044;-20
2022/02/27 10:48:39;;;;;;;26.60;14.38;;;;;;;5.36;79.13;100613.19;5026992;28;20029;-21
2022/02/27 10:51:09;;;;;;;27.35;14.50;;;;;;;5.16;81.17;100596.88;5008616;28;20044;-20
2022/02/27 10:53:45;;;;;;;26.77;14.52;;;;;;;5.21;82.11;100616.53;5026714;28;20460;-20
2022/02/27 10:56:15;;;;;;;26.63;15.27;;;;;;;5.16;82.32;100618.03;5010507;28;20038;-20
2022/02/27 10:58:44;;;;;;;26.00;12.88;;;;;;;5.02;82.99;100620.38;5009415;28;20124;-20
2022/02/27 11:01:25;;;;;;;26.02;15.45;;;;;;;4.97;84.63;100600.75;5026704;28;20144;-21
2022/02/27 11:03:55;;;;;;;24.98;12.98;;;;;;;4.95;84.16;100610.66;5010075;28;20048;-20
2022/02/27 11:06:20;;;;;;;27.73;16.65;;;;;;;4.98;85.46;100605.03;5026689;28;20037;-20
2022/02/27 11:08:46;;;;;;;20.90;11.60;;;;;;;4.91;84.83;100585.56;5026552;28;20029;-20
2022/02/27 11:11:15;;;;;;;26.58;14.52;;;;;;;5.12;86.09;100585.81;5026605;28;20489;-20